Aviation WX Report

Aviation WX Report (1)

                                                                                                   GENERAL AVIATION FORECAST ST. MAARTEN

 

DATE ISSUED: May 25th 2017        VALID TIME: 12:00 -24:00Z

AREA OF COVERAGE: TNCM TMA (Bounded by 18.25N 063.39W, 18.25N 062.51W, 17.47N 062.22W, 17.26N 062.53W, 17.36N 063.39W AND 18.25N 063.39W)


LEVELS OF COVERAGE: MSL TO FL100
  

SIG WX : NONE.

SIG. CLDS: NONE.

SFC. VIS: 10+ KM.

 
FCST WNDS/TEMP ALOFT: 25/18:00Z

 

LEVEL

WINDS

TEMP

0500 FT

080/15KT

+26

1000 FT

080/15KT

+23

2000 FT

080/15KT

+21

3000 FT

090/15KT

+19

FL050

080/15KT

+16

FL080

050/15KT

+12

FL100

040/15KT

+09

 
 
 

FZL: ABOVE FL100 SPECIAL FEATURES: NONE

TAF:

TNCM 251144Z 2512/2612 08009KT P6SM FEW021
  FM251300 09012KT P6SM SCT020
  FM252300 09008KT P6SM SCT018

FORECASTER: ALBERT.

 

                                                         Meteorological Department St. Maarten

                  Airport Rd. # 69, Simpson Bay (1-721) 545-2024 or (1-721) 545-4226 Fax: (1-721) 545-2998
                                                        E-Mail: This email address is being protected from spambots. You need JavaScript enabled to view it.

 

TAFS:

TNCM 251144Z 2512/2612 08009KT P6SM FEW021
  FM251300 09012KT P6SM SCT020
  FM252300 09008KT P6SM SCT018
TKPK 251144Z 2512/2612 08010KT P6SM SCT018
  FM251300 06015KT P6SM SCT020
  FM252300 07008KT P6SM SCT018
TAF TAPA 251100Z 2512/2612 08010KT 9999 SCT022
  PROB40 TEMPO 2604/2612 SHRA
TAF TUPJ 251100Z 2512/2612 08010KT 9999 SCT022
TIST 251144Z 2512/2612 09009KT P6SM SCT025
  FM251300 11015KT P6SM SCT025
  FM252300 08008KT P6SM FEW030
TISX 251144Z 2512/2612 08008KT P6SM FEW021
  FM251300 10015KT P6SM SCT025
  FM252300 06007KT P6SM FEW030
TJSJ 251144Z 2512/2612 09004KT P6SM FEW050
  FM251300 08015KT P6SM FEW030 FEW060
  FM252300 10008KT P6SM FEW060
TAF MDSD 251000Z 2512/2612 12012KT 9999 SCT020 BKN300
TAF MDPP 251000Z 2512/2612 00000KT 9999 FEW018 SCT070
  BECMG 2513/2517 09008KT
17.36N 63.40W and 18.30N 63.40W).
Levels of Coverage: MSL to FL100.
SIG WX: ISOL SHRA.
SIG CLDS: FEW TCU 1000 - 1500FT AND TOPS ABV FL100.
SCT/ BKN LYR SC/AC 2000 - 3500FT AND TOPS ABV FL100.
SFC VIS: 10+ KM, 3 - 7 KM IN SHRA.
FCST WNDS/TEMP ALOFT: 14/ 18:00Z
0500 FT.. 200/10KT +26 FL050.....220/10KT +16
1000 FT.. 200/10KT +24 FL080.....220/05KT +11
2000 FT.. 210/15KT +22 FL100.....200/10KT +08
3000 FT.. 210/15KT +19
FZL: ABV FL100.
SPECIAL FEATURES:
NONE.
TAFS:
TAF TNCM 141200Z 1412/1512 14012KT P6SM VCSH BKN018 BKN035
FM141800 21008KT P6SM VCSH SCT022 SCT050=
Forecaster: DJF.

Save

Save

Save

Save

Save

Save

Save

Save

Save

Save

Save

Save

Save

Save

Save

Save

Save

Save

Save

Save

Save

Save

Save

Save

Save

Save

Save

Save

Save

Save

Save

Save

Save

Save

Save

Save

Save

Save

Save

Save

Save

Save

Save

Save

Save

Save

Save

Save

Save

Save

Save

Save

Save

Save

Save

Save

Save

Save

Save

Save

Save

Save

Save

Save

Save

Save

Save

Save

Save

Save

Save

Save

Save

Save

Save

Save

Save

Save

Save

Save

Save

Save

Save

Save

Save

Save

Save

Save

Save

Save

Save

Save

Save

Save

Save

Save

Save

Save

Save

Save

Save

Save

Save

Save

Save

Save

Save

Save

Save

Save

Save

Save

Save

Save

Save

Save

Save

Save

Save

Save

Save

Save

Save

Save

Save

Save

Save

Save

Save

Save

Save

Save

Save

Save

Save

Save

Save

Save

Save

International News

Go to top